createdAt,value
2022-12-11T00:01:36.390Z,93856.59
2022-12-11T00:04:02.650Z,93862.06
2022-12-11T00:06:28.899Z,93862.22
2022-12-11T00:08:55.146Z,93855.09
2022-12-11T00:11:21.413Z,93854.66
2022-12-11T00:13:47.679Z,93859.72
2022-12-11T00:16:13.966Z,93856.53
2022-12-11T00:18:40.261Z,93863.03
2022-12-11T00:21:06.535Z,93864.97
2022-12-11T00:23:32.799Z,93866.59
2022-12-11T00:25:59.064Z,93865.13
2022-12-11T00:28:25.313Z,93869.03
2022-12-11T00:30:51.578Z,93868.59
2022-12-11T00:33:17.889Z,93878.41
2022-12-11T00:35:44.131Z,93883.34
2022-12-11T00:38:10.393Z,93878.00
2022-12-11T00:40:36.657Z,93879.31
2022-12-11T00:43:02.902Z,93870.38
2022-12-11T00:45:29.177Z,93863.50
2022-12-11T00:47:55.423Z,93860.59
2022-12-11T00:50:21.697Z,93863.13
2022-12-11T00:52:48.044Z,93865.63
2022-12-11T00:55:14.296Z,93873.47
2022-12-11T00:57:40.565Z,93871.84
2022-12-11T01:00:06.830Z,93873.63
2022-12-11T01:02:33.122Z,93882.69
2022-12-11T01:04:59.410Z,93883.66
2022-12-11T01:07:25.649Z,93887.00
2022-12-11T01:09:51.904Z,93875.31
2022-12-11T01:12:18.175Z,93871.84
2022-12-11T01:14:44.414Z,93866.50
2022-12-11T01:17:10.677Z,93862.59
2022-12-11T01:19:36.918Z,93863.63
2022-12-11T01:22:03.178Z,93860.41
2022-12-11T01:24:29.458Z,93861.88
2022-12-11T01:26:55.693Z,93861.81
2022-12-11T01:29:21.933Z,93868.56
2022-12-11T01:31:48.207Z,93873.59
2022-12-11T01:34:14.458Z,93890.84
2022-12-11T01:36:40.773Z,93896.84
2022-12-11T01:39:07.041Z,93894.38
2022-12-11T01:41:33.286Z,93887.31
2022-12-11T01:43:59.534Z,93893.41
2022-12-11T01:46:25.837Z,93882.25
2022-12-11T01:48:52.170Z,93890.94
2022-12-11T01:51:18.425Z,93892.72
2022-12-11T01:53:44.689Z,93889.75
2022-12-11T01:56:11.000Z,93896.47
2022-12-11T01:58:37.276Z,93892.66
2022-12-11T02:01:03.559Z,93898.00
2022-12-11T02:03:29.874Z,93904.09
2022-12-11T02:05:56.122Z,93895.94
2022-12-11T02:08:22.439Z,93892.97
2022-12-11T02:10:48.730Z,93885.34
2022-12-11T02:13:15.018Z,93881.63
2022-12-11T02:15:41.253Z,93875.75
2022-12-11T02:18:07.491Z,93884.63
2022-12-11T02:20:33.752Z,93889.56
2022-12-11T02:23:00.016Z,93894.34
2022-12-11T02:25:26.273Z,93898.41
2022-12-11T02:27:52.550Z,93891.47
2022-12-11T02:30:18.808Z,93898.97
2022-12-11T02:32:45.072Z,93896.88
2022-12-11T02:35:11.619Z,93890.88
2022-12-11T02:37:37.977Z,93897.59
2022-12-11T02:40:04.227Z,93899.38
2022-12-11T02:42:30.494Z,93900.75
2022-12-11T02:44:56.773Z,93897.81
2022-12-11T02:47:23.013Z,93905.78
2022-12-11T02:49:49.272Z,93902.78
2022-12-11T02:52:15.546Z,93899.78
2022-12-11T02:54:41.811Z,93897.28
2022-12-11T02:57:08.082Z,93889.91
2022-12-11T02:59:34.347Z,93885.66
2022-12-11T03:02:00.645Z,93884.84
2022-12-11T03:04:26.968Z,93890.19
2022-12-11T03:06:53.231Z,93891.25
2022-12-11T03:09:19.498Z,93891.00
2022-12-11T03:11:45.747Z,93888.59
2022-12-11T03:14:12.006Z,93886.09
2022-12-11T03:16:38.316Z,93890.75
2022-12-11T03:19:04.650Z,93897.47
2022-12-11T03:21:30.892Z,93887.94
2022-12-11T03:23:57.135Z,93891.94
2022-12-11T03:26:23.393Z,93894.91
2022-12-11T03:28:49.657Z,93897.09
2022-12-11T03:31:15.960Z,93895.19
2022-12-11T03:33:42.256Z,93892.44
2022-12-11T03:36:08.522Z,93897.38
2022-12-11T03:38:34.772Z,93900.66
2022-12-11T03:41:01.023Z,93889.50
2022-12-11T03:43:27.268Z,93888.25
2022-12-11T03:45:53.544Z,93885.97
2022-12-11T03:48:19.829Z,93891.00
2022-12-11T03:50:46.096Z,93893.44
2022-12-11T03:53:12.365Z,93887.97
2022-12-11T03:55:38.628Z,93902.44
2022-12-11T03:58:04.878Z,93892.19
2022-12-11T04:00:31.242Z,93895.91
2022-12-11T04:02:57.487Z,93900.00
2022-12-11T04:05:23.762Z,93894.56
2022-12-11T04:07:50.139Z,93896.63
2022-12-11T04:10:16.412Z,93891.44
2022-12-11T04:12:42.675Z,93894.69
2022-12-11T04:15:09.323Z,93888.59
2022-12-11T04:17:35.741Z,93891.06
2022-12-11T04:20:02.009Z,93886.44
2022-12-11T04:22:28.257Z,93885.47
2022-12-11T04:24:54.513Z,93883.97
2022-12-11T04:27:20.780Z,93884.09
2022-12-11T04:29:47.064Z,93881.94
2022-12-11T04:32:13.369Z,93877.28
2022-12-11T04:34:39.629Z,93879.72
2022-12-11T04:37:05.887Z,93877.69
2022-12-11T04:39:32.161Z,93877.69
2022-12-11T04:41:58.418Z,93878.91
2022-12-11T04:44:24.682Z,93882.19
2022-12-11T04:46:50.992Z,93881.63
2022-12-11T04:49:17.298Z,93886.28
2022-12-11T04:51:43.546Z,93884.38
2022-12-11T04:54:09.781Z,93893.13
2022-12-11T04:56:36.041Z,93894.22
2022-12-11T04:59:02.300Z,93893.81
2022-12-11T05:01:28.699Z,93885.09
2022-12-11T05:03:54.977Z,93877.34
2022-12-11T05:06:21.229Z,93881.56
2022-12-11T05:08:47.492Z,93876.91
2022-12-11T05:11:13.735Z,93875.28
2022-12-11T05:13:39.997Z,93875.00
2022-12-11T05:16:06.318Z,93875.69
2022-12-11T05:18:32.606Z,93874.75
2022-12-11T05:20:58.881Z,93875.94
2022-12-11T05:23:25.149Z,93874.19
2022-12-11T05:25:51.393Z,93871.44
2022-12-11T05:28:17.635Z,93874.88
2022-12-11T05:30:43.907Z,93878.28
2022-12-11T05:33:10.231Z,93877.06
2022-12-11T05:35:36.493Z,93879.78
2022-12-11T05:38:02.738Z,93880.75
2022-12-11T05:40:29.001Z,93874.47
2022-12-11T05:42:55.274Z,93881.56
2022-12-11T05:45:21.541Z,93884.00
2022-12-11T05:47:47.823Z,93884.81
2022-12-11T05:50:14.096Z,93875.44
2022-12-11T05:52:40.365Z,93878.41
2022-12-11T05:55:06.614Z,93879.91
2022-12-11T05:57:32.881Z,93871.44
2022-12-11T05:59:59.140Z,93866.97
2022-12-11T06:02:25.461Z,93869.41
2022-12-11T06:04:51.823Z,93882.09
2022-12-11T06:07:18.080Z,93874.19
2022-12-11T06:09:44.344Z,93872.28
2022-12-11T06:12:10.600Z,93876.94
2022-12-11T06:14:36.865Z,93872.56
2022-12-11T06:17:03.103Z,93869.84
2022-12-11T06:19:33.473Z,93877.75
2022-12-11T06:22:02.938Z,93872.59
2022-12-11T06:24:29.181Z,93867.66
2022-12-11T06:26:55.466Z,93868.75
2022-12-11T06:29:21.721Z,93876.66
2022-12-11T06:31:48.045Z,93880.34
2022-12-11T06:34:14.355Z,93881.13
2022-12-11T06:36:40.618Z,93886.59
2022-12-11T06:39:06.881Z,93892.28
2022-12-11T06:41:33.148Z,93886.00
2022-12-11T06:43:59.390Z,93880.44
2022-12-11T06:46:25.710Z,93881.94
2022-12-11T06:48:52.057Z,93883.28
2022-12-11T06:51:18.345Z,93883.13
2022-12-11T06:53:44.613Z,93876.47
2022-12-11T06:56:10.882Z,93882.75
2022-12-11T06:58:37.145Z,93879.34
2022-12-11T07:01:03.408Z,93883.69
2022-12-11T07:03:29.702Z,93882.75
2022-12-11T07:05:55.977Z,93884.81
2022-12-11T07:08:22.244Z,93886.81
2022-12-11T07:10:48.519Z,93884.09
2022-12-11T07:13:14.786Z,93882.91
2022-12-11T07:15:41.028Z,93889.38
2022-12-11T07:18:07.298Z,93891.00
2022-12-11T07:20:33.561Z,93894.13
2022-12-11T07:22:59.799Z,93900.53
2022-12-11T07:25:26.138Z,93893.59
2022-12-11T07:27:52.375Z,93895.66
2022-12-11T07:30:18.621Z,93888.44
2022-12-11T07:32:44.901Z,93892.28
2022-12-11T07:35:11.438Z,93886.41
2022-12-11T07:37:37.951Z,93892.66
2022-12-11T07:40:04.189Z,93897.16
2022-12-11T07:42:30.435Z,93891.44
2022-12-11T07:44:56.696Z,93900.16
2022-12-11T07:47:22.938Z,93900.81
2022-12-11T07:49:49.177Z,93907.22
2022-12-11T07:52:15.444Z,93906.53
2022-12-11T07:54:41.692Z,93901.78
2022-12-11T07:57:13.946Z,93898.50
2022-12-11T07:59:40.513Z,93898.13
2022-12-11T08:02:06.785Z,93898.69
2022-12-11T08:04:33.069Z,93900.41
2022-12-11T08:06:59.324Z,93898.28
2022-12-11T08:09:25.588Z,93895.53
2022-12-11T08:11:51.895Z,93898.41
2022-12-11T08:14:18.184Z,93894.72
2022-12-11T08:16:44.459Z,93890.38
2022-12-11T08:19:10.924Z,93887.94
2022-12-11T08:21:37.166Z,93888.06
2022-12-11T08:24:03.405Z,93885.56
2022-12-11T08:26:29.653Z,93888.31
2022-12-11T08:28:55.897Z,93890.38
2022-12-11T08:31:22.184Z,93881.66
2022-12-11T08:33:48.455Z,93878.41
2022-12-11T08:36:14.713Z,93874.72
2022-12-11T08:38:40.970Z,93871.31
2022-12-11T08:41:07.203Z,93870.22
2022-12-11T08:43:33.459Z,93865.75
2022-12-11T08:45:59.788Z,93864.34
2022-12-11T08:48:26.109Z,93861.50
2022-12-11T08:50:52.351Z,93862.84
2022-12-11T08:53:18.605Z,93850.84
2022-12-11T08:55:44.867Z,93864.19
2022-12-11T08:58:11.119Z,93861.28
2022-12-11T09:00:37.383Z,93862.94
2022-12-11T09:03:05.338Z,93863.06
2022-12-11T09:05:34.700Z,93859.00
2022-12-11T09:08:01.203Z,93866.94
2022-12-11T09:10:27.593Z,93868.00
2022-12-11T09:12:53.861Z,93861.47
2022-12-11T09:15:20.125Z,93860.25
2022-12-11T09:17:46.389Z,93865.44
2022-12-11T09:20:12.639Z,93863.38
2022-12-11T09:22:38.877Z,93862.03
2022-12-11T09:25:05.128Z,93861.63
2022-12-11T09:27:31.408Z,93861.78
2022-12-11T09:29:57.654Z,93865.19
2022-12-11T09:32:23.889Z,93864.78
2022-12-11T09:34:50.158Z,93857.72
2022-12-11T09:37:16.424Z,93858.94
2022-12-11T09:39:42.665Z,93864.78
2022-12-11T09:42:08.921Z,93868.34
2022-12-11T09:44:35.176Z,93871.47
2022-12-11T09:47:01.435Z,93866.03
2022-12-11T09:49:27.685Z,93857.72
2022-12-11T09:51:53.940Z,93863.31
2022-12-11T09:54:20.189Z,93862.75
2022-12-11T09:56:46.434Z,93859.09
2022-12-11T09:59:12.676Z,93848.47
2022-12-11T10:01:38.978Z,93838.69
2022-12-11T10:04:05.245Z,93842.19
2022-12-11T10:06:31.513Z,93833.75
2022-12-11T10:08:57.775Z,93829.41
2022-12-11T10:11:24.025Z,93834.88
2022-12-11T10:13:50.280Z,93838.41
2022-12-11T10:16:16.594Z,93846.84
2022-12-11T10:18:42.897Z,93842.09
2022-12-11T10:21:09.165Z,93846.03
2022-12-11T10:23:35.437Z,93841.13
2022-12-11T10:26:01.725Z,93840.28
2022-12-11T10:28:27.972Z,93831.31
2022-12-11T10:30:54.240Z,93837.84
2022-12-11T10:33:20.558Z,93836.91
2022-12-11T10:35:46.826Z,93842.88
2022-12-11T10:38:13.073Z,93836.22
2022-12-11T10:40:39.343Z,93840.00
2022-12-11T10:43:05.586Z,93840.84
2022-12-11T10:45:31.839Z,93837.28
2022-12-11T10:47:58.083Z,93848.72
2022-12-11T10:50:24.336Z,93847.25
2022-12-11T10:52:50.582Z,93834.56
2022-12-11T10:55:16.853Z,93837.16
2022-12-11T10:57:43.094Z,93832.38
2022-12-11T11:00:09.340Z,93836.88
2022-12-11T11:02:35.631Z,93821.34
2022-12-11T11:05:01.940Z,93818.22
2022-12-11T11:07:28.187Z,93820.41
2022-12-11T11:09:54.445Z,93812.22
2022-12-11T11:12:20.690Z,93818.06
2022-12-11T11:14:46.934Z,93815.47
2022-12-11T11:17:13.199Z,93802.41
2022-12-11T11:19:39.447Z,93800.50
2022-12-11T11:22:05.693Z,93789.75
2022-12-11T11:24:31.938Z,93795.19
2022-12-11T11:27:13.161Z,93799.44
2022-12-11T11:29:39.878Z,93797.53
2022-12-11T11:32:06.123Z,93792.88
2022-12-11T11:34:32.381Z,93797.25
2022-12-11T11:36:58.638Z,93794.94
2022-12-11T11:39:24.888Z,93790.16
2022-12-11T11:41:51.158Z,93791.09
2022-12-11T11:44:17.405Z,93794.63
2022-12-11T11:46:43.682Z,93795.44
2022-12-11T11:49:09.977Z,93789.69
2022-12-11T11:51:36.212Z,93787.09
2022-12-11T11:54:02.467Z,93788.72
2022-12-11T11:56:28.712Z,93792.50
2022-12-11T11:58:54.947Z,93790.84
2022-12-11T12:01:21.207Z,93779.97
2022-12-11T12:03:47.468Z,93779.16
2022-12-11T12:06:15.371Z,93774.25
2022-12-11T12:08:41.753Z,93778.06
2022-12-11T12:11:08.008Z,93784.47
2022-12-11T12:13:50.459Z,93775.84
2022-12-11T12:16:50.529Z,93772.03
2022-12-11T12:19:03.277Z,93776.66
2022-12-11T12:21:29.536Z,93764.81
2022-12-11T12:23:55.789Z,93771.38
2022-12-11T12:26:22.045Z,93772.97
2022-12-11T12:28:48.334Z,93770.00
2022-12-11T12:31:14.619Z,93766.34
2022-12-11T12:33:40.877Z,93767.31
2022-12-11T12:36:07.473Z,93764.91
2022-12-11T12:38:33.805Z,93759.84
2022-12-11T12:41:00.046Z,93763.50
2022-12-11T12:43:26.277Z,93755.59
2022-12-11T12:45:52.665Z,93751.97
2022-12-11T12:48:18.962Z,93757.25
2022-12-11T12:50:45.206Z,93758.22
2022-12-11T12:53:11.446Z,93748.88
2022-12-11T12:55:37.701Z,93755.22
2022-12-11T12:58:03.961Z,93755.72
2022-12-11T13:00:30.216Z,93760.81
2022-12-11T13:02:56.453Z,93764.63
2022-12-11T13:05:22.691Z,93758.78
2022-12-11T13:07:54.001Z,93761.06
2022-12-11T13:10:20.748Z,93760.09
2022-12-11T13:12:47.009Z,93754.34
2022-12-11T13:15:13.447Z,93752.09
2022-12-11T13:17:39.817Z,93747.34
2022-12-11T13:20:06.052Z,93748.25
2022-12-11T13:22:32.312Z,93744.56
2022-12-11T13:24:58.570Z,93751.94
2022-12-11T13:27:24.833Z,93755.28
2022-12-11T13:29:51.070Z,93743.88
2022-12-11T13:32:17.308Z,93750.41
2022-12-11T13:34:43.593Z,93746.81
2022-12-11T13:37:09.834Z,93751.28
2022-12-11T13:39:36.071Z,93747.25
2022-12-11T13:42:02.345Z,93745.50
2022-12-11T13:44:28.591Z,93748.06
2022-12-11T13:46:54.841Z,93745.06
2022-12-11T13:49:21.086Z,93736.81
2022-12-11T13:51:47.332Z,93738.19
2022-12-11T13:54:16.642Z,93735.09
2022-12-11T13:56:43.661Z,93745.66
2022-12-11T13:59:09.916Z,93736.50
2022-12-11T14:01:36.191Z,93735.66
2022-12-11T14:04:02.467Z,93734.03
2022-12-11T14:06:28.728Z,93734.03
2022-12-11T14:08:54.993Z,93740.81
2022-12-11T14:11:21.244Z,93751.47
2022-12-11T14:13:47.487Z,93748.16
2022-12-11T14:16:13.771Z,93747.81
2022-12-11T14:18:40.026Z,93742.28
2022-12-11T14:21:06.260Z,93744.00
2022-12-11T14:23:32.525Z,93742.22
2022-12-11T14:25:58.796Z,93738.47
2022-12-11T14:28:25.064Z,93745.38
2022-12-11T14:30:51.328Z,93748.75
2022-12-11T14:33:17.579Z,93741.16
2022-12-11T14:35:43.860Z,93747.16
2022-12-11T14:38:10.123Z,93751.00
2022-12-11T14:40:36.370Z,93755.22
2022-12-11T14:43:02.614Z,93754.16
2022-12-11T14:45:28.918Z,93753.19
2022-12-11T14:47:55.208Z,93745.81
2022-12-11T14:50:21.468Z,93746.88
2022-12-11T14:52:47.715Z,93752.53
2022-12-11T14:55:13.977Z,93750.50
2022-12-11T14:57:40.232Z,93746.25
2022-12-11T15:00:06.479Z,93750.50
2022-12-11T15:02:32.771Z,93752.53
2022-12-11T15:04:59.054Z,93742.44
2022-12-11T15:07:25.310Z,93750.16
2022-12-11T15:09:51.549Z,93746.59
2022-12-11T15:12:17.804Z,93745.22
2022-12-11T15:14:44.050Z,93748.47
2022-12-11T15:17:10.318Z,93754.41
2022-12-11T15:19:36.573Z,93755.63
2022-12-11T15:22:02.822Z,93762.03
2022-12-11T15:24:29.085Z,93758.97
2022-12-11T15:26:55.334Z,93757.34
2022-12-11T15:29:21.589Z,93764.72
2022-12-11T15:31:47.861Z,93762.03
2022-12-11T15:34:14.105Z,93763.00
2022-12-11T15:36:40.345Z,93768.47
2022-12-11T15:39:06.604Z,93767.78
2022-12-11T15:41:32.867Z,93765.94
2022-12-11T15:43:59.454Z,93778.16
2022-12-11T15:46:25.812Z,93768.41
2022-12-11T15:48:52.102Z,93773.97
2022-12-11T15:51:18.353Z,93775.91
2022-12-11T15:53:44.609Z,93775.91
2022-12-11T15:56:10.873Z,93771.31
2022-12-11T15:58:37.125Z,93774.00
2022-12-11T16:01:03.441Z,93774.56
2022-12-11T16:03:29.685Z,93769.78
2022-12-11T16:05:55.942Z,93762.47
2022-12-11T16:08:22.311Z,93758.91
2022-12-11T16:10:48.601Z,93763.53
2022-12-11T16:13:14.865Z,93762.72
2022-12-11T16:15:41.146Z,93763.53
2022-12-11T16:18:07.434Z,93765.03
2022-12-11T16:20:33.700Z,93767.47
2022-12-11T16:22:59.936Z,93759.16
2022-12-11T16:25:26.197Z,93765.72
2022-12-11T16:27:52.438Z,93768.69
2022-12-11T16:30:18.693Z,93770.91
2022-12-11T16:32:45.049Z,93772.25
2022-12-11T16:35:11.514Z,93772.78
2022-12-11T16:37:37.879Z,93773.44
2022-12-11T16:40:04.153Z,93775.66
2022-12-11T16:42:30.413Z,93773.75
2022-12-11T16:44:56.658Z,93771.00
2022-12-11T16:47:22.920Z,93777.66
2022-12-11T16:49:49.188Z,93774.28
2022-12-11T16:52:20.535Z,93768.13
2022-12-11T16:54:48.445Z,93770.88
2022-12-11T16:57:14.701Z,93774.41
2022-12-11T16:59:40.969Z,93773.84
2022-12-11T17:02:07.316Z,93773.31
2022-12-11T17:04:33.598Z,93780.66
2022-12-11T17:06:59.873Z,93785.84
2022-12-11T17:09:26.120Z,93778.31
2022-12-11T17:11:52.377Z,93770.88
2022-12-11T17:14:18.634Z,93777.38
2022-12-11T17:16:44.878Z,93780.50
2022-12-11T17:19:11.139Z,93777.22
2022-12-11T17:21:37.382Z,93785.63
2022-12-11T17:24:03.649Z,93786.34
2022-12-11T17:26:29.905Z,93792.84
2022-12-11T17:28:56.155Z,93796.38
2022-12-11T17:31:22.528Z,93783.84
2022-12-11T17:33:48.842Z,93783.31
2022-12-11T17:36:15.124Z,93787.66
2022-12-11T17:38:41.367Z,93791.72
2022-12-11T17:41:07.615Z,93790.38
2022-12-11T17:43:33.873Z,93791.19
2022-12-11T17:46:00.194Z,93788.72
2022-12-11T17:48:26.548Z,93791.31
2022-12-11T17:50:52.822Z,93787.22
2022-12-11T17:53:19.086Z,93780.06
2022-12-11T17:55:45.376Z,93782.63
2022-12-11T17:58:11.650Z,93778.69
2022-12-11T18:00:37.910Z,93774.06
2022-12-11T18:03:04.162Z,93789.00
2022-12-11T18:05:30.424Z,93785.13
2022-12-11T18:07:58.123Z,93787.19
2022-12-11T18:10:24.641Z,93782.97
2022-12-11T18:12:50.889Z,93783.63
2022-12-11T18:15:17.130Z,93797.22
2022-12-11T18:17:43.393Z,93793.66
2022-12-11T18:20:09.660Z,93792.38
2022-12-11T18:22:35.914Z,93789.50
2022-12-11T18:25:09.292Z,93795.25
2022-12-11T18:27:36.000Z,93795.50
2022-12-11T18:30:02.354Z,93795.22
2022-12-11T18:32:28.610Z,93801.31
2022-12-11T18:34:54.869Z,93792.06
2022-12-11T18:37:26.214Z,93795.16
2022-12-11T18:39:54.091Z,93796.69
2022-12-11T18:42:35.639Z,93798.00
2022-12-11T18:45:01.912Z,93796.25
2022-12-11T18:47:28.173Z,93790.81
2022-12-11T18:49:54.441Z,93796.41
2022-12-11T18:52:20.700Z,93792.72
2022-12-11T18:54:46.963Z,93790.00
2022-12-11T18:57:13.233Z,93795.88
2022-12-11T18:59:39.482Z,93795.94
2022-12-11T19:02:05.920Z,93801.25
2022-12-11T19:04:32.323Z,93808.03
2022-12-11T19:06:58.583Z,93799.47
2022-12-11T19:09:24.849Z,93802.50
2022-12-11T19:11:51.098Z,93803.00
2022-12-11T19:14:17.349Z,93802.56
2022-12-11T19:16:43.606Z,93813.41
2022-12-11T19:19:09.870Z,93811.78
2022-12-11T19:21:36.115Z,93814.72
2022-12-11T19:24:02.378Z,93813.47
2022-12-11T19:26:28.641Z,93815.38
2022-12-11T19:29:00.894Z,93814.75
2022-12-11T19:31:27.197Z,93807.25
2022-12-11T19:33:53.468Z,93812.88
2022-12-11T19:36:19.725Z,93815.69
2022-12-11T19:38:46.065Z,93813.94
2022-12-11T19:41:12.324Z,93805.91
2022-12-11T19:43:38.575Z,93811.41
2022-12-11T19:46:04.819Z,93809.28
2022-12-11T19:48:31.071Z,93803.91
2022-12-11T19:50:57.311Z,93812.06
2022-12-11T19:53:23.593Z,93803.91
2022-12-11T19:55:49.858Z,93817.63
2022-12-11T19:58:16.103Z,93808.19
2022-12-11T20:00:42.388Z,93811.84
2022-12-11T20:03:08.673Z,93809.66
2022-12-11T20:05:34.953Z,93819.97
2022-12-11T20:08:27.336Z,93822.13
2022-12-11T20:10:47.422Z,93813.81
2022-12-11T20:13:13.671Z,93808.84
2022-12-11T20:15:39.931Z,93812.91
2022-12-11T20:18:06.215Z,93812.78
2022-12-11T20:20:32.463Z,93813.56
2022-12-11T20:22:58.914Z,93813.25
2022-12-11T20:25:25.174Z,93816.06
2022-12-11T20:27:51.434Z,93811.09
2022-12-11T20:30:17.677Z,93816.25
2022-12-11T20:32:43.914Z,93809.56
2022-12-11T20:35:10.474Z,93816.56
2022-12-11T20:37:36.921Z,93812.22
2022-12-11T20:40:03.193Z,93820.31
2022-12-11T20:42:29.444Z,93821.97
2022-12-11T20:44:55.705Z,93814.31
2022-12-11T20:47:21.960Z,93809.44
2022-12-11T20:49:48.221Z,93814.72
2022-12-11T20:52:14.457Z,93816.16
2022-12-11T20:54:40.710Z,93821.53
2022-12-11T20:57:06.973Z,93811.53
2022-12-11T20:59:33.230Z,93801.66
2022-12-11T21:01:59.517Z,93802.66
2022-12-11T21:04:25.837Z,93796.91
2022-12-11T21:06:52.089Z,93800.06
2022-12-11T21:09:18.325Z,93799.94
2022-12-11T21:11:44.566Z,93805.84
2022-12-11T21:14:10.830Z,93800.50
2022-12-11T21:16:37.137Z,93797.09
2022-12-11T21:19:03.443Z,93807.66
2022-12-11T21:21:29.725Z,93803.06
2022-12-11T21:23:55.983Z,93800.13
2022-12-11T21:26:22.234Z,93800.47
2022-12-11T21:28:48.488Z,93803.66
2022-12-11T21:31:14.852Z,93798.31
2022-12-11T21:33:41.167Z,93796.41
2022-12-11T21:36:07.410Z,93798.91
2022-12-11T21:38:33.666Z,93802.06
2022-12-11T21:40:59.913Z,93794.53
2022-12-11T21:43:26.155Z,93793.72
2022-12-11T21:46:00.976Z,93802.78
2022-12-11T21:48:27.895Z,93796.28
2022-12-11T21:50:54.142Z,93801.00
2022-12-11T21:53:20.386Z,93796.81
2022-12-11T21:55:46.653Z,93799.06
2022-12-11T21:58:12.913Z,93805.44
2022-12-11T22:00:39.168Z,93801.97
2022-12-11T22:03:05.415Z,93799.81
2022-12-11T22:05:31.685Z,93806.72
2022-12-11T22:07:58.012Z,93806.25
2022-12-11T22:10:24.317Z,93806.38
2022-12-11T22:12:50.582Z,93816.91
2022-12-11T22:15:16.838Z,93810.31
2022-12-11T22:17:43.086Z,93808.00
2022-12-11T22:20:09.330Z,93806.50
2022-12-11T22:22:35.577Z,93815.88
2022-12-11T22:25:01.840Z,93816.38
2022-12-11T22:27:28.097Z,93810.78
2022-12-11T22:29:54.366Z,93816.53
2022-12-11T22:32:20.611Z,93813.75
2022-12-11T22:34:46.975Z,93813.38
2022-12-11T22:37:13.217Z,93807.06
2022-12-11T22:39:39.476Z,93807.75
2022-12-11T22:42:05.731Z,93815.03
2022-12-11T22:44:31.985Z,93814.91
2022-12-11T22:46:58.238Z,93819.00
2022-12-11T22:49:24.617Z,93812.56
2022-12-11T22:51:50.878Z,93811.72
2022-12-11T22:54:17.129Z,93815.81
2022-12-11T22:56:43.403Z,93818.03
2022-12-11T22:59:09.650Z,93812.81
2022-12-11T23:01:35.897Z,93809.03
2022-12-11T23:04:02.168Z,93812.47
2022-12-11T23:06:28.427Z,93808.88
2022-12-11T23:08:54.745Z,93813.09
2022-12-11T23:11:21.020Z,93813.28
2022-12-11T23:13:47.288Z,93806.25
2022-12-11T23:16:13.550Z,93806.56
2022-12-11T23:18:40.897Z,93811.09
2022-12-11T23:21:07.176Z,93806.53
2022-12-11T23:23:33.435Z,93811.16
2022-12-11T23:25:59.678Z,93807.56
2022-12-11T23:28:25.920Z,93813.13
2022-12-11T23:30:52.255Z,93805.56
2022-12-11T23:33:18.546Z,93811.53
2022-12-11T23:35:44.790Z,93810.59
2022-12-11T23:38:11.060Z,93813.97
2022-12-11T23:40:37.407Z,93821.09
2022-12-11T23:43:03.668Z,93820.59
2022-12-11T23:45:29.906Z,93819.72
2022-12-11T23:47:56.150Z,93826.09
2022-12-11T23:50:22.456Z,93825.50
2022-12-11T23:52:48.744Z,93834.75
2022-12-11T23:55:15.150Z,93832.50
2022-12-11T23:57:41.504Z,93826.94
